Аэропорт: Уфа. Уфа

ICAO: UWUU

METAR:
2020-08-12 06:00:00
UWUU 120600Z 32004MPS 280V360 CAVOK 18/09 Q1009 R32L/0///60 NOSIG
METAR:
2020-08-12 04:46:00
TAF UWUU 120446Z 1206/1306 33003G08MPS 9999 SCT040 TX20/1211Z TN09/1301Z TEMPO 1206/1306 VRB01MPS BKN020CB